createdAt,value
2019-05-15T00:00:55.779Z,6.36
2019-05-15T00:03:23.460Z,6.47
2019-05-15T00:05:50.523Z,6.67
2019-05-15T00:08:18.337Z,6.65
2019-05-15T00:10:47.796Z,6.64
2019-05-15T00:13:14.626Z,6.59
2019-05-15T00:15:41.644Z,6.60
2019-05-15T00:18:08.964Z,6.85
2019-05-15T00:20:39.116Z,7.03
2019-05-15T00:23:05.801Z,7.04
2019-05-15T00:25:32.865Z,6.98
2019-05-15T00:28:01.933Z,6.89
2019-05-15T00:30:29.254Z,6.91
2019-05-15T00:32:58.922Z,6.33
2019-05-15T00:35:28.613Z,5.86
2019-05-15T00:37:55.074Z,5.61
2019-05-15T00:40:22.091Z,5.45
2019-05-15T00:42:49.166Z,5.47
2019-05-15T00:45:18.486Z,5.42
2019-05-15T00:47:48.650Z,5.35
2019-05-15T00:50:18.334Z,5.40
2019-05-15T00:52:45.490Z,5.47
2019-05-15T00:55:15.900Z,5.53
2019-05-15T00:57:45.030Z,5.63
2019-05-15T01:00:12.578Z,5.63
2019-05-15T01:02:39.721Z,5.71
2019-05-15T01:05:09.023Z,5.75
2019-05-15T01:07:39.274Z,5.75
2019-05-15T01:10:09.549Z,5.63
2019-05-15T01:12:38.031Z,5.60
2019-05-15T01:15:05.564Z,5.50
2019-05-15T01:17:34.518Z,5.52
2019-05-15T01:20:03.046Z,5.48
2019-05-15T01:22:30.063Z,5.55
2019-05-15T01:24:58.950Z,5.60
2019-05-15T01:27:26.083Z,5.52
2019-05-15T01:29:53.193Z,5.49
2019-05-15T01:32:20.267Z,5.53
2019-05-15T01:34:49.044Z,5.50
2019-05-15T01:37:18.745Z,5.48
2019-05-15T01:39:48.413Z,5.48
2019-05-15T01:42:18.617Z,5.47
2019-05-15T01:44:48.247Z,5.45
2019-05-15T01:47:14.980Z,5.47
2019-05-15T01:49:42.186Z,5.46
2019-05-15T01:52:09.556Z,5.38
2019-05-15T01:54:38.376Z,5.28
2019-05-15T01:57:05.597Z,5.27
2019-05-15T01:59:32.769Z,5.31
2019-05-15T02:01:59.863Z,5.30
2019-05-15T02:04:29.010Z,5.36
2019-05-15T02:06:58.752Z,5.36
2019-05-15T02:09:25.239Z,5.34
2019-05-15T02:11:52.299Z,5.24
2019-05-15T02:14:19.349Z,5.13
2019-05-15T02:16:48.363Z,5.04
2019-05-15T02:19:15.699Z,4.94
2019-05-15T02:21:42.743Z,5.14
2019-05-15T02:24:09.911Z,5.15
2019-05-15T02:26:38.863Z,5.16
2019-05-15T02:29:07.855Z,5.15
2019-05-15T02:31:35.225Z,5.10
2019-05-15T02:34:02.350Z,5.04
2019-05-15T02:36:29.588Z,5.02
2019-05-15T02:38:59.645Z,5.18
2019-05-15T02:41:29.824Z,5.08
2019-05-15T02:43:59.181Z,4.99
2019-05-15T02:46:26.157Z,4.96
2019-05-15T02:48:53.290Z,4.75
2019-05-15T02:51:20.338Z,4.79
2019-05-15T02:53:49.948Z,4.72
2019-05-15T02:56:20.703Z,4.71
2019-05-15T02:58:50.569Z,4.77
2019-05-15T03:01:19.020Z,5.02
2019-05-15T03:03:49.441Z,5.03
2019-05-15T03:06:19.030Z,5.08
2019-05-15T03:08:49.691Z,5.02
2019-05-15T03:11:19.195Z,4.82
2019-05-15T03:13:49.984Z,4.82
2019-05-15T03:16:15.444Z,4.64
2019-05-15T03:18:42.772Z,4.67
2019-05-15T03:21:10.069Z,4.44
2019-05-15T03:23:40.450Z,4.46
2019-05-15T03:26:08.806Z,4.48
2019-05-15T03:28:35.263Z,4.60
2019-05-15T03:31:22.551Z,4.56
2019-05-15T03:33:36.251Z,4.48
2019-05-15T03:36:02.982Z,4.53
2019-05-15T03:38:30.170Z,4.55
2019-05-15T03:40:59.530Z,4.52
2019-05-15T03:43:28.966Z,4.59
2019-05-15T03:45:56.225Z,4.62
2019-05-15T03:48:23.273Z,4.72
2019-05-15T03:50:50.295Z,4.77
2019-05-15T03:53:19.253Z,4.80
2019-05-15T03:55:48.764Z,4.86
2019-05-15T03:58:15.229Z,4.89
2019-05-15T04:00:45.519Z,4.79
2019-05-15T04:03:12.681Z,4.95
2019-05-15T04:05:40.840Z,5.05
2019-05-15T04:08:11.022Z,4.90
2019-05-15T04:10:39.693Z,4.97
2019-05-15T04:13:09.060Z,5.27
2019-05-15T04:15:34.798Z,5.30
2019-05-15T04:18:01.935Z,5.29
2019-05-15T04:20:30.450Z,5.34
2019-05-15T04:23:00.390Z,5.36
2019-05-15T04:25:29.655Z,5.51
2019-05-15T04:27:59.952Z,5.44
2019-05-15T04:30:27.003Z,5.63
2019-05-15T04:32:54.036Z,5.81
2019-05-15T04:35:21.925Z,5.96
2019-05-15T04:37:49.611Z,5.88
2019-05-15T04:40:19.330Z,5.73
2019-05-15T04:42:49.823Z,5.65
2019-05-15T04:45:19.201Z,5.92
2019-05-15T04:47:49.767Z,6.21
2019-05-15T04:50:19.199Z,6.01
2019-05-15T04:52:54.924Z,6.08
2019-05-15T04:55:35.887Z,5.86
2019-05-15T04:58:09.846Z,6.29
2019-05-15T05:00:49.518Z,6.39
2019-05-15T05:03:22.708Z,6.37
2019-05-15T05:05:50.648Z,6.75
2019-05-15T05:08:20.083Z,6.94
2019-05-15T05:10:48.796Z,7.14
2019-05-15T05:13:19.406Z,6.90
2019-05-15T05:15:44.978Z,6.92
2019-05-15T05:18:12.193Z,6.71
2019-05-15T05:20:39.482Z,6.83
2019-05-15T05:23:08.554Z,6.99
2019-05-15T05:25:35.906Z,6.81
2019-05-15T05:28:02.967Z,6.90
2019-05-15T05:30:30.024Z,7.26
2019-05-15T05:32:58.163Z,7.12
2019-05-15T05:35:27.887Z,6.98
2019-05-15T05:37:58.312Z,7.56
2019-05-15T05:40:25.388Z,7.21
2019-05-15T05:42:52.469Z,7.51
2019-05-15T05:45:19.897Z,7.57
2019-05-15T05:47:48.670Z,7.81
2019-05-15T05:50:33.319Z,7.86
2019-05-15T05:53:00.469Z,7.80
2019-05-15T05:55:28.725Z,7.77
2019-05-15T05:57:58.323Z,7.50
2019-05-15T06:00:32.717Z,7.94
2019-05-15T06:02:59.795Z,8.10
2019-05-15T06:05:28.095Z,8.30
2019-05-15T06:07:58.220Z,8.62
2019-05-15T06:10:25.704Z,8.34
2019-05-15T06:12:52.746Z,8.71
2019-05-15T06:15:19.849Z,9.35
2019-05-15T06:17:48.108Z,9.14
2019-05-15T06:20:15.267Z,9.06
2019-05-15T06:22:42.386Z,9.11
2019-05-15T06:25:11.710Z,8.94
2019-05-15T06:27:43.406Z,9.69
2019-05-15T06:30:19.252Z,10.07
2019-05-15T06:32:41.656Z,9.84
2019-05-15T06:35:10.047Z,10.89
2019-05-15T06:37:39.501Z,11.03
2019-05-15T06:40:08.440Z,11.01
2019-05-15T06:42:39.273Z,10.47
2019-05-15T06:45:08.099Z,9.79
2019-05-15T06:47:35.245Z,9.41
2019-05-15T06:50:03.622Z,9.74
2019-05-15T06:52:31.926Z,10.05
2019-05-15T06:54:59.381Z,10.40
2019-05-15T06:57:28.700Z,10.58
2019-05-15T06:59:57.831Z,10.87
2019-05-15T07:02:24.651Z,11.16
2019-05-15T07:04:53.790Z,11.56
2019-05-15T07:07:20.924Z,11.58
2019-05-15T07:09:48.777Z,11.28
2019-05-15T07:12:18.512Z,11.34
2019-05-15T07:14:45.181Z,11.69
2019-05-15T07:17:12.258Z,11.36
2019-05-15T07:19:39.502Z,11.59
2019-05-15T07:22:09.193Z,12.10
2019-05-15T07:24:38.222Z,12.38
2019-05-15T07:27:07.871Z,12.33
2019-05-15T07:29:35.557Z,11.99
2019-05-15T07:32:02.793Z,11.33
2019-05-15T07:34:32.999Z,12.33
2019-05-15T07:37:01.803Z,11.85
2019-05-15T07:39:30.026Z,11.52
2019-05-15T07:41:57.823Z,12.34
2019-05-15T07:44:28.189Z,12.66
2019-05-15T07:46:58.347Z,12.78
2019-05-15T07:49:25.778Z,12.38
2019-05-15T07:51:59.580Z,12.34
2019-05-15T07:54:29.621Z,12.76
2019-05-15T07:56:58.192Z,13.55
2019-05-15T07:59:27.802Z,13.31
2019-05-15T08:01:54.508Z,12.12
2019-05-15T08:04:28.759Z,13.87
2019-05-15T08:06:50.690Z,14.13
2019-05-15T08:09:18.121Z,13.15
2019-05-15T08:11:45.242Z,13.37
2019-05-15T08:14:12.514Z,13.85
2019-05-15T08:16:39.874Z,14.43
2019-05-15T08:19:08.660Z,13.53
2019-05-15T08:21:38.560Z,13.42
2019-05-15T08:24:08.379Z,14.85
2019-05-15T08:26:37.788Z,15.00
2019-05-15T08:29:04.357Z,15.42
2019-05-15T08:31:33.781Z,15.55
2019-05-15T08:34:13.554Z,15.50
2019-05-15T08:41:05.457Z,15.39
2019-05-15T08:43:38.087Z,14.21
2019-05-15T08:46:08.263Z,15.22
2019-05-15T08:48:35.303Z,15.84
2019-05-15T08:51:02.798Z,15.05
2019-05-15T08:53:29.808Z,14.74
2019-05-15T08:55:58.826Z,14.68
2019-05-15T08:58:26.194Z,15.87
2019-05-15T09:00:53.594Z,16.40
2019-05-15T09:03:20.953Z,15.43
2019-05-15T09:05:48.748Z,15.41
2019-05-15T09:08:18.851Z,15.38
2019-05-15T09:10:44.962Z,15.60
2019-05-15T09:13:12.084Z,15.14
2019-05-15T09:15:39.668Z,14.04
2019-05-15T09:18:14.992Z,13.04
2019-05-15T09:20:38.363Z,13.71
2019-05-15T09:23:05.040Z,13.99
2019-05-15T09:25:32.117Z,13.50
2019-05-15T09:27:59.189Z,13.64
2019-05-15T09:30:28.473Z,13.88
2019-05-15T09:32:55.140Z,13.98
2019-05-15T09:35:22.219Z,14.40
2019-05-15T09:37:49.330Z,15.08
2019-05-15T09:40:18.881Z,14.96
2019-05-15T09:42:48.508Z,13.61
2019-05-15T09:45:15.279Z,13.45
2019-05-15T09:47:44.275Z,13.63
2019-05-15T09:50:12.670Z,13.86
2019-05-15T09:52:39.773Z,14.81
2019-05-15T09:55:08.694Z,15.39
2019-05-15T09:57:38.635Z,15.68
2019-05-15T10:00:08.950Z,15.52
2019-05-15T10:02:39.396Z,15.25
2019-05-15T10:05:10.980Z,15.25
2019-05-15T10:07:36.581Z,17.34
2019-05-15T10:10:04.447Z,18.23
2019-05-15T10:12:34.918Z,17.75
2019-05-15T10:15:00.591Z,16.47
2019-05-15T10:17:29.072Z,16.97
2019-05-15T10:19:58.227Z,17.45
2019-05-15T10:22:28.170Z,18.00
2019-05-15T10:24:54.937Z,18.28
2019-05-15T10:27:22.149Z,18.19
2019-05-15T10:29:49.148Z,19.29
2019-05-15T10:32:19.255Z,16.78
2019-05-15T10:34:46.770Z,18.63
2019-05-15T10:37:13.907Z,18.98
2019-05-15T10:39:40.932Z,18.06
2019-05-15T10:42:10.125Z,16.87
2019-05-15T10:44:39.353Z,16.35
2019-05-15T10:47:08.913Z,16.29
2019-05-15T10:49:36.152Z,15.16
2019-05-15T10:52:03.224Z,15.18
2019-05-15T10:54:30.302Z,15.04
2019-05-15T10:57:00.510Z,14.70
2019-05-15T10:59:27.698Z,13.77
2019-05-15T11:01:59.035Z,14.63
2019-05-15T11:04:28.676Z,15.18
2019-05-15T11:07:03.627Z,14.81
2019-05-15T11:09:30.683Z,14.68
2019-05-15T11:11:58.366Z,14.78
2019-05-15T11:14:25.685Z,14.74
2019-05-15T11:16:52.756Z,14.59
2019-05-15T11:19:20.090Z,14.94
2019-05-15T11:21:49.250Z,16.71
2019-05-15T11:24:16.566Z,18.59
2019-05-15T11:26:43.798Z,20.37
2019-05-15T11:29:10.901Z,21.08
2019-05-15T11:31:39.350Z,20.27
2019-05-15T11:34:09.172Z,21.34
2019-05-15T11:36:38.501Z,20.43
2019-05-15T11:39:08.406Z,18.16
2019-05-15T11:41:38.473Z,19.07
2019-05-15T11:44:10.367Z,20.07
2019-05-15T11:46:41.422Z,22.03
2019-05-15T11:49:11.273Z,23.20
2019-05-15T11:51:38.499Z,22.55
2019-05-15T11:54:08.050Z,22.79
2019-05-15T11:56:34.942Z,22.72
2019-05-15T11:59:02.058Z,22.05
2019-05-15T12:01:29.468Z,23.81
2019-05-15T12:03:58.537Z,25.11
2019-05-15T12:06:26.079Z,22.77
2019-05-15T12:08:53.523Z,20.88
2019-05-15T12:11:31.108Z,22.93
2019-05-15T12:13:49.866Z,20.37
2019-05-15T12:16:17.331Z,23.46
2019-05-15T12:18:44.548Z,19.89
2019-05-15T12:21:19.622Z,21.33
2019-05-15T12:23:44.045Z,23.88
2019-05-15T12:26:12.958Z,23.70
2019-05-15T12:28:40.558Z,23.45
2019-05-15T12:31:08.964Z,25.49
2019-05-15T12:33:38.621Z,26.48
2019-05-15T12:36:14.846Z,22.86
2019-05-15T12:38:42.128Z,22.56
2019-05-15T13:01:16.546Z,28.67
2019-05-15T13:03:35.382Z,22.62
2019-05-15T13:06:10.891Z,24.96
2019-05-15T13:08:38.625Z,26.28
2019-05-15T13:11:09.648Z,26.27
2019-05-15T13:13:35.030Z,25.79
2019-05-15T13:16:02.186Z,26.42
2019-05-15T13:18:29.692Z,27.93
2019-05-15T13:20:59.180Z,21.83
2019-05-15T13:23:28.814Z,21.99
2019-05-15T13:25:59.122Z,22.57
2019-05-15T13:28:28.998Z,23.91
2019-05-15T13:30:55.916Z,29.28
2019-05-15T13:33:23.112Z,27.72
2019-05-15T13:35:50.190Z,22.36
2019-05-15T13:38:33.668Z,19.56
2019-05-15T13:41:00.801Z,21.05
2019-05-15T13:43:29.821Z,23.58
2019-05-15T13:45:58.132Z,22.76
2019-05-15T13:48:25.146Z,24.09
2019-05-15T13:50:59.168Z,23.93
2019-05-15T13:53:30.312Z,23.43
2019-05-15T13:55:57.487Z,23.80
2019-05-15T13:58:29.742Z,25.52
2019-05-15T14:00:58.847Z,27.26
2019-05-15T14:03:28.271Z,26.67
2019-05-15T14:05:58.302Z,22.05
2019-05-15T14:08:34.602Z,19.44
2019-05-15T14:11:08.623Z,21.27
2019-05-15T14:13:35.372Z,24.58
2019-05-15T14:16:05.049Z,25.92
2019-05-15T14:18:32.565Z,25.33
2019-05-15T14:20:59.635Z,23.33
2019-05-15T14:23:29.358Z,20.60
2019-05-15T14:25:58.686Z,23.86
2019-05-15T14:28:28.189Z,24.58
2019-05-15T14:30:58.196Z,24.77
2019-05-15T14:33:29.247Z,22.20
2019-05-15T14:35:58.270Z,23.50
2019-05-15T14:38:25.753Z,21.00
2019-05-15T14:40:59.118Z,24.38
2019-05-15T14:43:32.642Z,21.30
2019-05-15T14:46:01.847Z,21.84
2019-05-15T14:48:31.258Z,20.59
2019-05-15T14:50:59.992Z,22.88
2019-05-15T14:53:30.254Z,21.70
2019-05-15T14:56:00.436Z,21.23
2019-05-15T14:58:27.779Z,20.43
2019-05-15T15:00:55.116Z,19.21
2019-05-15T15:03:23.343Z,20.43
2019-05-15T15:05:50.438Z,21.31
2019-05-15T15:08:24.881Z,21.46
2019-05-15T15:10:55.006Z,22.54
2019-05-15T15:13:22.990Z,24.71
2019-05-15T15:16:09.588Z,23.55
2019-05-15T15:18:48.252Z,21.53
2019-05-15T15:21:29.916Z,23.48
2019-05-15T15:24:04.443Z,23.17
2019-05-15T15:26:46.340Z,22.41
2019-05-15T15:29:19.157Z,22.97
2019-05-15T15:31:51.964Z,22.31
2019-05-15T15:34:44.941Z,23.98
2019-05-15T15:37:22.125Z,24.80
2019-05-15T15:40:05.164Z,22.85
2019-05-15T15:42:43.226Z,19.93
2019-05-15T15:45:22.671Z,20.40
2019-05-15T15:48:08.682Z,21.10
2019-05-15T15:50:48.675Z,22.62
2019-05-15T15:53:44.481Z,22.24
2019-05-15T15:56:24.998Z,20.77
2019-05-15T15:59:18.174Z,22.48
2019-05-15T16:01:49.430Z,22.45
2019-05-15T16:04:52.731Z,22.89
2019-05-15T16:10:34.799Z,19.14
2019-05-15T16:13:22.818Z,20.99
2019-05-15T16:16:00.834Z,20.29
2019-05-15T16:18:29.208Z,19.17
2019-05-15T16:20:58.000Z,19.46
2019-05-15T16:23:29.644Z,18.91
2019-05-15T16:26:01.049Z,19.29
2019-05-15T16:28:28.972Z,18.50
2019-05-15T16:30:58.557Z,18.08
2019-05-15T16:33:28.826Z,17.78
2019-05-15T16:35:57.971Z,17.69
2019-05-15T16:38:25.222Z,17.49
2019-05-15T16:40:52.844Z,16.82
2019-05-15T16:43:19.958Z,17.13
2019-05-15T16:45:49.610Z,16.93
2019-05-15T16:48:18.711Z,16.86
2019-05-15T16:50:48.887Z,16.80
2019-05-15T16:53:18.302Z,16.46
2019-05-15T16:55:47.909Z,16.21
2019-05-15T16:58:14.601Z,16.70
2019-05-15T17:00:41.842Z,16.51
2019-05-15T17:03:14.742Z,16.36
2019-05-15T17:05:38.898Z,15.97
2019-05-15T17:08:08.829Z,15.91
2019-05-15T17:10:38.794Z,15.77
2019-05-15T17:13:08.733Z,15.67
2019-05-15T17:15:38.478Z,15.50
2019-05-15T17:18:08.998Z,15.54
2019-05-15T17:20:37.351Z,15.88
2019-05-15T17:23:13.827Z,16.03
2019-05-15T17:25:48.911Z,16.05
2019-05-15T17:28:20.587Z,15.71
2019-05-15T17:30:48.868Z,15.36
2019-05-15T17:33:19.051Z,15.20
2019-05-15T17:35:48.773Z,14.99
2019-05-15T17:38:18.355Z,14.70
2019-05-15T17:40:48.883Z,14.49
2019-05-15T17:43:18.311Z,14.40
2019-05-15T17:45:48.437Z,14.42
2019-05-15T17:48:15.601Z,14.46
2019-05-15T17:50:51.604Z,14.47
2019-05-15T17:53:17.967Z,14.32
2019-05-15T17:55:44.632Z,14.35
2019-05-15T17:58:12.054Z,14.43
2019-05-15T18:00:39.554Z,14.43
2019-05-15T18:03:08.782Z,14.63
2019-05-15T18:05:39.165Z,14.51
2019-05-15T18:08:08.653Z,14.18
2019-05-15T18:10:38.480Z,14.16
2019-05-15T18:13:09.456Z,13.78
2019-05-15T18:15:38.621Z,13.62
2019-05-15T18:18:09.582Z,13.52
2019-05-15T18:20:38.134Z,13.59
2019-05-15T18:23:04.624Z,13.74
2019-05-15T18:25:32.076Z,13.68
2019-05-15T18:27:59.545Z,13.64
2019-05-15T18:30:29.121Z,13.44
2019-05-15T18:32:58.945Z,13.48
2019-05-15T18:35:29.511Z,13.46
2019-05-15T18:37:59.104Z,13.41
2019-05-15T18:40:27.818Z,13.32
2019-05-15T18:42:55.377Z,13.31
2019-05-15T18:45:22.657Z,13.29
2019-05-15T18:47:58.596Z,13.50
2019-05-15T18:50:25.726Z,13.55
2019-05-15T18:52:52.851Z,13.34
2019-05-15T18:55:20.015Z,13.14
2019-05-15T18:57:50.291Z,13.15
2019-05-15T19:00:18.504Z,12.96
2019-05-15T19:02:52.048Z,12.83
2019-05-15T19:05:19.331Z,12.72
2019-05-15T19:07:48.752Z,12.52
2019-05-15T19:10:18.725Z,12.46
2019-05-15T19:12:48.404Z,12.36
2019-05-15T19:15:18.157Z,12.38
2019-05-15T19:17:47.481Z,12.42
2019-05-15T19:20:18.950Z,12.25
2019-05-15T19:22:48.419Z,12.27
2019-05-15T19:25:17.818Z,12.29
2019-05-15T19:27:44.659Z,12.25
2019-05-15T19:30:13.723Z,12.24
2019-05-15T19:32:41.264Z,12.21
2019-05-15T19:35:09.129Z,12.23
2019-05-15T19:37:38.470Z,12.29
2019-05-15T19:40:11.784Z,12.33
2019-05-15T19:42:48.644Z,12.29
2019-05-15T19:45:17.552Z,12.31
2019-05-15T19:47:47.829Z,12.31
2019-05-15T19:50:17.928Z,12.06
2019-05-15T19:52:48.239Z,12.20
2019-05-15T19:55:21.105Z,12.09
2019-05-15T19:57:48.671Z,12.00
2019-05-15T20:00:18.748Z,12.15
2019-05-15T20:02:58.132Z,12.13
2019-05-15T20:05:28.688Z,12.22
2019-05-15T20:07:58.543Z,12.05
2019-05-15T20:10:25.176Z,11.99
2019-05-15T20:12:53.119Z,11.86
2019-05-15T20:15:24.042Z,11.95
2019-05-15T20:17:52.838Z,12.03
2019-05-15T20:20:20.470Z,11.95
2019-05-15T20:22:48.268Z,11.77
2019-05-15T20:25:18.457Z,11.87
2019-05-15T20:27:47.982Z,11.78
2019-05-15T20:30:18.031Z,11.97
2019-05-15T20:32:47.988Z,12.12
2019-05-15T20:35:15.915Z,12.28
2019-05-15T20:37:45.796Z,12.37
2019-05-15T20:40:14.202Z,12.24
2019-05-15T20:42:41.512Z,11.83
2019-05-15T20:45:12.389Z,11.66
2019-05-15T20:47:40.698Z,11.96
2019-05-15T20:50:08.724Z,12.01
2019-05-15T20:52:39.342Z,11.96
2019-05-15T20:55:08.311Z,11.92
2019-05-15T20:57:40.882Z,11.73
2019-05-15T21:00:10.496Z,11.65
2019-05-15T21:02:38.711Z,11.72
2019-05-15T21:05:15.019Z,11.95
2019-05-15T21:07:43.257Z,11.73
2019-05-15T21:10:11.572Z,11.61
2019-05-15T21:12:41.833Z,11.68
2019-05-15T21:15:12.334Z,11.78
2019-05-15T21:17:41.708Z,11.96
2019-05-15T21:20:09.469Z,11.92
2019-05-15T21:22:36.885Z,11.85
2019-05-15T21:25:04.579Z,11.93
2019-05-15T21:27:33.466Z,11.88
2019-05-15T21:30:02.856Z,11.92
2019-05-15T21:32:32.142Z,11.75
2019-05-15T21:34:59.350Z,11.93
2019-05-15T21:37:27.509Z,11.75
2019-05-15T21:39:55.598Z,11.53
2019-05-15T21:42:22.672Z,11.65
2019-05-15T21:44:49.909Z,11.49
2019-05-15T21:47:18.875Z,11.67
2019-05-15T21:49:48.206Z,11.71
2019-05-15T21:52:18.538Z,11.67
2019-05-15T21:54:47.447Z,11.78
2019-05-15T21:57:32.372Z,11.72
2019-05-15T21:59:50.426Z,11.65
2019-05-15T22:02:18.190Z,11.95
2019-05-15T22:04:52.809Z,12.01
2019-05-15T22:07:17.862Z,12.17
2019-05-15T22:09:48.715Z,12.04
2019-05-15T22:12:23.195Z,11.90
2019-05-15T22:14:52.248Z,11.96
2019-05-15T22:17:19.479Z,11.86
2019-05-15T22:19:49.215Z,12.06
2019-05-15T22:22:17.955Z,11.99
2019-05-15T22:24:45.696Z,11.73
2019-05-15T22:27:13.315Z,11.41
2019-05-15T22:29:45.134Z,11.28
2019-05-15T22:32:12.708Z,11.32
2019-05-15T22:34:41.112Z,11.43
2019-05-15T22:37:09.014Z,11.59
2019-05-15T22:39:38.422Z,11.25
2019-05-15T22:42:05.659Z,11.23
2019-05-15T22:44:33.038Z,11.36
2019-05-15T22:47:00.150Z,10.97
2019-05-15T22:49:28.842Z,10.97
2019-05-15T22:51:58.134Z,11.00
2019-05-15T22:54:25.147Z,11.15
2019-05-15T22:56:52.195Z,11.07
2019-05-15T22:59:21.595Z,11.38
2019-05-15T23:01:49.799Z,11.57
2019-05-15T23:04:18.112Z,11.85
2019-05-15T23:06:45.450Z,12.18
2019-05-15T23:09:12.561Z,12.24
2019-05-15T23:11:39.775Z,12.04
2019-05-15T23:14:08.135Z,11.86
2019-05-15T23:16:35.449Z,11.60
2019-05-15T23:19:02.636Z,11.46
2019-05-15T23:21:29.669Z,11.71
2019-05-15T23:23:57.920Z,12.00
2019-05-15T23:26:24.950Z,11.88
2019-05-15T23:28:53.116Z,11.38
2019-05-15T23:31:20.244Z,11.33
2019-05-15T23:33:48.935Z,11.18
2019-05-15T23:36:17.889Z,10.88
2019-05-15T23:38:44.968Z,11.20
2019-05-15T23:41:13.906Z,11.33
2019-05-15T23:43:40.945Z,10.95
2019-05-15T23:46:08.480Z,10.93
2019-05-15T23:48:37.707Z,10.73
2019-05-15T23:51:05.333Z,10.75
2019-05-15T23:53:32.450Z,10.69
2019-05-15T23:56:01.109Z,10.78
2019-05-15T23:58:29.203Z,10.70
